Moran, Iowa
Current Conditions -  °F | °C
As of 2:35 PM on Friday 19 Dec 2014 (Local Time) from KPRO Reporting Station
Haze Haze  
Wind Chill: 25°   Ceiling: 1200
Heat Index: 33°   Visibility: 5mi
Dew Point: 31°   Wind: 9mph
Humidity: 92%   Direction: 170°S
Pressure: 30.2"   Gusts: NA
Location:  41.8164°N, 93.8864°W
Report Text: KPRO 192035Z AUTO 17008KT 5SM BR OVC012 01/M01 A3020 RMK AO2 T00061006
Loading
Personal Weather Stations






























Interactive Weather Map New forecast layout! Learn more

10-Day Weather Forecast

Advertisements
Track Severe Weather on mobile